createdAt,value
2022-11-10T00:00:12.601Z,43.83
2022-11-10T00:03:03.799Z,51.22
2022-11-10T00:05:51.365Z,47.03
2022-11-10T00:08:38.597Z,44.72
2022-11-10T00:11:26.702Z,50.97
2022-11-10T00:14:31.501Z,44.72
2022-11-10T00:17:18.350Z,49.63
2022-11-10T00:20:07.952Z,42.20
2022-11-10T00:22:56.776Z,45.08
2022-11-10T00:25:44.219Z,51.08
2022-11-10T00:28:33.109Z,51.75
2022-11-10T00:31:20.195Z,49.65
2022-11-10T00:34:08.259Z,59.45
2022-11-10T00:36:57.081Z,52.13
2022-11-10T00:39:44.539Z,56.53
2022-11-10T00:42:32.058Z,57.83
2022-11-10T00:45:19.413Z,56.40
2022-11-10T00:48:06.884Z,58.33
2022-11-10T00:50:54.102Z,58.00
2022-11-10T00:53:42.541Z,55.10
2022-11-10T00:56:29.658Z,58.20
2022-11-10T00:59:16.713Z,56.85
2022-11-10T01:02:04.172Z,62.90
2022-11-10T01:04:51.194Z,61.10
2022-11-10T01:07:38.366Z,63.38
2022-11-10T01:10:27.694Z,59.65
2022-11-10T01:13:15.090Z,63.28
2022-11-10T01:16:06.214Z,61.28
2022-11-10T01:18:54.817Z,66.60
2022-11-10T01:21:41.931Z,60.87
2022-11-10T01:24:29.056Z,59.45
2022-11-10T01:27:17.758Z,63.40
2022-11-10T01:30:05.969Z,63.30
2022-11-10T01:32:52.965Z,61.20
2022-11-10T01:35:40.907Z,68.05
2022-11-10T01:38:29.622Z,67.85
2022-11-10T01:41:17.033Z,66.83
2022-11-10T01:44:20.082Z,68.55
2022-11-10T01:47:07.710Z,67.45
2022-11-10T01:49:55.274Z,70.63
2022-11-10T01:52:45.372Z,68.03
2022-11-10T01:55:33.493Z,66.38
2022-11-10T01:58:26.665Z,67.07
2022-11-10T02:01:15.946Z,60.95
2022-11-10T02:04:06.433Z,65.90
2022-11-10T02:06:54.717Z,73.93
2022-11-10T02:09:42.016Z,59.33
2022-11-10T02:12:38.086Z,60.22
2022-11-10T02:15:25.253Z,70.40
2022-11-10T02:18:26.209Z,68.85
2022-11-10T02:21:18.267Z,71.47
2022-11-10T02:24:05.932Z,76.78
2022-11-10T02:26:55.871Z,71.20
2022-11-10T02:29:43.248Z,71.18
2022-11-10T02:32:30.127Z,63.63
2022-11-10T02:35:17.383Z,68.20
2022-11-10T02:38:05.698Z,71.57
2022-11-10T02:40:53.250Z,66.30
2022-11-10T02:43:40.558Z,66.18
2022-11-10T02:46:27.702Z,66.60
2022-11-10T02:49:14.580Z,58.90
2022-11-10T02:52:01.949Z,58.22
2022-11-10T02:54:50.438Z,57.47
2022-11-10T02:57:37.515Z,59.95
2022-11-10T03:00:24.895Z,63.10
2022-11-10T03:03:11.968Z,53.03
2022-11-10T03:05:59.267Z,60.63
2022-11-10T03:08:46.365Z,62.55
2022-11-10T03:11:35.374Z,63.70
2022-11-10T03:14:22.548Z,64.20
2022-11-10T03:17:09.941Z,59.60
2022-11-10T03:19:57.053Z,67.10
2022-11-10T03:22:44.493Z,63.38
2022-11-10T03:25:32.294Z,64.30
2022-11-10T03:28:20.992Z,64.18
2022-11-10T03:31:08.169Z,66.07
2022-11-10T03:33:55.254Z,65.70
2022-11-10T03:36:42.203Z,68.10
2022-11-10T03:39:29.400Z,74.35
2022-11-10T03:42:16.636Z,71.28
2022-11-10T03:45:05.702Z,66.70
2022-11-10T03:47:52.958Z,83.82
2022-11-10T03:50:40.201Z,84.75
2022-11-10T03:53:27.433Z,80.50
2022-11-10T03:56:15.059Z,72.30
2022-11-10T03:59:02.152Z,76.35
2022-11-10T04:01:50.535Z,78.97
2022-11-10T04:04:55.686Z,74.60
2022-11-10T04:08:00.657Z,89.30
2022-11-10T04:10:48.137Z,84.97
2022-11-10T04:13:53.144Z,82.25
2022-11-10T04:16:40.484Z,80.60
2022-11-10T04:19:29.355Z,93.70
2022-11-10T04:22:36.545Z,84.22
2022-11-10T04:25:23.720Z,92.90
2022-11-10T04:28:11.006Z,97.88
2022-11-10T04:30:58.072Z,106.55
2022-11-10T04:33:45.868Z,102.07
2022-11-10T04:36:36.324Z,96.55
2022-11-10T04:39:23.703Z,80.90
2022-11-10T04:42:11.054Z,80.22
2022-11-10T04:44:58.197Z,79.88
2022-11-10T04:47:45.518Z,75.95
2022-11-10T04:50:32.971Z,82.00
2022-11-10T04:53:22.570Z,77.00
2022-11-10T04:56:12.745Z,73.35
2022-11-10T04:58:59.983Z,66.80
2022-11-10T05:01:46.734Z,77.45
2022-11-10T05:04:34.072Z,69.18
2022-11-10T05:07:21.094Z,74.72
2022-11-10T05:10:10.511Z,68.95
2022-11-10T05:15:45.240Z,76.60
2022-11-10T05:18:32.387Z,67.47
2022-11-10T05:21:19.613Z,80.68
2022-11-10T05:24:07.106Z,78.20
2022-11-10T05:26:55.923Z,68.30
2022-11-10T05:29:43.158Z,82.32
2022-11-10T05:32:30.450Z,72.18
2022-11-10T05:35:17.879Z,74.72
2022-11-10T05:38:05.459Z,84.80
2022-11-10T05:40:52.627Z,83.88
2022-11-10T05:43:41.135Z,72.22
2022-11-10T05:46:28.191Z,69.03
2022-11-10T05:49:15.199Z,72.20
2022-11-10T05:52:02.391Z,79.55
2022-11-10T05:54:49.829Z,78.38
2022-11-10T05:57:37.125Z,82.13
2022-11-10T06:00:27.133Z,75.43
2022-11-10T06:03:16.335Z,81.60
2022-11-10T06:06:03.770Z,82.70
2022-11-10T06:08:51.121Z,79.38
2022-11-10T06:11:38.331Z,87.05
2022-11-10T06:14:25.400Z,93.05
2022-11-10T06:17:14.245Z,80.38
2022-11-10T06:20:01.739Z,101.32
2022-11-10T06:23:01.118Z,87.85
2022-11-10T06:25:48.308Z,93.05
2022-11-10T06:28:35.377Z,94.68
2022-11-10T06:31:22.644Z,87.43
2022-11-10T06:34:10.886Z,91.72
2022-11-10T06:36:57.833Z,89.90
2022-11-10T06:39:44.817Z,87.05
2022-11-10T06:42:31.976Z,88.07
2022-11-10T06:45:18.920Z,83.97
2022-11-10T06:48:08.965Z,74.03
2022-11-10T06:50:57.388Z,77.63
2022-11-10T06:53:44.657Z,75.90
2022-11-10T06:56:31.769Z,79.13
2022-11-10T06:59:18.898Z,68.00
2022-11-10T07:02:06.200Z,66.40
2022-11-10T07:04:53.311Z,62.88
2022-11-10T07:07:44.142Z,81.55
2022-11-10T07:10:33.537Z,64.50
2022-11-10T07:13:21.324Z,66.80
2022-11-10T07:16:09.380Z,56.10
2022-11-10T07:18:57.096Z,52.20
2022-11-10T07:21:44.492Z,54.42
2022-11-10T07:24:33.431Z,55.25
2022-11-10T07:27:20.793Z,56.25
2022-11-10T07:30:09.086Z,60.17
2022-11-10T07:33:01.965Z,53.78
2022-11-10T07:35:55.369Z,49.35
2022-11-10T07:38:42.983Z,49.10
2022-11-10T07:41:31.720Z,45.60
2022-11-10T07:44:18.876Z,44.67
2022-11-10T07:47:06.389Z,46.45
2022-11-10T07:49:53.973Z,50.08
2022-11-10T07:52:41.153Z,44.40
2022-11-10T07:55:28.285Z,53.03
2022-11-10T07:58:17.827Z,43.78
2022-11-10T08:01:05.468Z,45.60
2022-11-10T08:03:52.760Z,42.17
2022-11-10T08:06:40.082Z,56.38
2022-11-10T08:09:27.615Z,49.88
2022-11-10T08:12:14.559Z,39.72
2022-11-10T08:15:03.119Z,38.58
2022-11-10T08:17:50.272Z,34.53
2022-11-10T08:20:37.421Z,34.33
2022-11-10T08:23:24.778Z,37.58
2022-11-10T08:26:12.382Z,38.85
2022-11-10T08:28:59.665Z,37.65
2022-11-10T08:31:48.553Z,38.58
2022-11-10T08:34:35.935Z,36.08
2022-11-10T08:37:23.139Z,37.38
2022-11-10T08:40:11.648Z,40.55
2022-11-10T08:43:02.239Z,40.28
2022-11-10T08:45:49.273Z,38.15
2022-11-10T08:48:37.757Z,46.00
2022-11-10T08:51:24.786Z,37.67
2022-11-10T08:54:12.044Z,42.00
2022-11-10T08:56:59.209Z,47.33
2022-11-10T08:59:46.293Z,45.67
2022-11-10T09:02:33.457Z,39.60
2022-11-10T09:05:22.117Z,51.58
2022-11-10T09:08:10.053Z,38.60
2022-11-10T09:10:57.097Z,35.55
2022-11-10T09:13:44.196Z,37.28
2022-11-10T09:16:31.456Z,44.40
2022-11-10T09:19:20.152Z,79.45
2022-11-10T09:22:09.814Z,38.33
2022-11-10T09:24:57.259Z,39.40
2022-11-10T09:27:44.539Z,42.20
2022-11-10T09:30:32.373Z,37.75
2022-11-10T09:33:20.574Z,36.05
2022-11-10T09:36:08.706Z,39.35
2022-11-10T09:38:57.393Z,34.03
2022-11-10T09:41:46.274Z,33.03
2022-11-10T09:44:37.569Z,38.78
2022-11-10T09:47:55.622Z,35.72
2022-11-10T09:50:41.197Z,34.60
2022-11-10T09:53:33.661Z,34.83
2022-11-10T09:56:31.566Z,34.10
2022-11-10T09:59:26.084Z,37.45
2022-11-10T10:02:23.704Z,33.42
2022-11-10T10:05:42.052Z,35.53
2022-11-10T10:08:37.807Z,31.60
2022-11-10T10:11:49.957Z,41.70
2022-11-10T10:14:57.736Z,29.63
2022-11-10T10:17:53.164Z,31.45
2022-11-10T10:20:49.339Z,29.63
2022-11-10T10:24:08.050Z,31.25
2022-11-10T10:26:54.017Z,31.13
2022-11-10T10:29:44.776Z,30.25
2022-11-10T10:32:32.029Z,27.80
2022-11-10T10:35:20.037Z,25.75
2022-11-10T10:38:17.267Z,28.90
2022-11-10T10:41:13.471Z,27.70
2022-11-10T10:44:04.159Z,29.73
2022-11-10T10:46:53.397Z,43.55
2022-11-10T10:49:40.465Z,28.92
2022-11-10T10:52:27.702Z,26.90
2022-11-10T10:55:15.319Z,27.17
2022-11-10T10:58:04.897Z,37.15
2022-11-10T11:00:56.034Z,27.33
2022-11-10T11:03:44.921Z,32.30
2022-11-10T11:06:33.663Z,28.65
2022-11-10T11:09:24.846Z,27.73
2022-11-10T11:12:13.789Z,29.65
2022-11-10T11:15:20.286Z,28.52
2022-11-10T11:18:15.137Z,38.20
2022-11-10T11:21:06.847Z,27.25
2022-11-10T11:24:21.773Z,25.63
2022-11-10T11:27:17.470Z,33.00
2022-11-10T11:30:12.316Z,25.35
2022-11-10T11:33:22.018Z,24.75
2022-11-10T11:36:24.800Z,22.83
2022-11-10T11:39:26.732Z,20.25
2022-11-10T11:42:28.685Z,22.40
2022-11-10T11:45:21.672Z,24.02
2022-11-10T11:48:42.645Z,20.98
2022-11-10T11:51:36.691Z,26.25
2022-11-10T11:54:29.915Z,18.98
2022-11-10T11:57:24.063Z,20.25
2022-11-10T12:00:14.574Z,22.10
2022-11-10T12:03:38.187Z,18.08
2022-11-10T12:06:49.150Z,19.83
2022-11-10T12:09:45.048Z,26.00
2022-11-10T12:12:54.594Z,19.73
2022-11-10T12:15:51.910Z,21.38
2022-11-10T12:18:49.669Z,25.90
2022-11-10T12:21:45.387Z,27.02
2022-11-10T12:24:52.549Z,17.80
2022-11-10T12:27:44.040Z,20.30
2022-11-10T12:30:32.335Z,23.60
2022-11-10T12:33:30.866Z,21.67
2022-11-10T12:36:22.217Z,27.08
2022-11-10T12:39:18.389Z,27.58
2022-11-10T12:42:09.479Z,19.88
2022-11-10T12:45:00.857Z,22.50
2022-11-10T12:47:49.706Z,22.40
2022-11-10T12:50:45.948Z,24.17
2022-11-10T12:53:37.831Z,20.95
2022-11-10T12:56:29.999Z,19.50
2022-11-10T12:59:31.162Z,22.30
2022-11-10T13:02:28.145Z,22.00
2022-11-10T13:05:33.920Z,27.90
2022-11-10T13:08:27.561Z,22.75
2022-11-10T13:11:27.484Z,28.75
2022-11-10T13:14:24.966Z,22.35
2022-11-10T13:17:13.210Z,23.25
2022-11-10T13:20:20.768Z,26.20
2022-11-10T13:23:22.706Z,20.57
2022-11-10T13:26:12.263Z,20.60
2022-11-10T13:29:02.689Z,22.02
2022-11-10T13:31:54.722Z,21.00
2022-11-10T13:34:42.504Z,23.02
2022-11-10T13:37:47.037Z,24.35
2022-11-10T13:40:36.940Z,26.67
2022-11-10T13:43:28.073Z,20.85
2022-11-10T13:46:17.159Z,20.83
2022-11-10T13:49:22.335Z,20.25
2022-11-10T13:52:13.422Z,19.50
2022-11-10T13:55:04.835Z,30.30
2022-11-10T13:57:59.475Z,24.83
2022-11-10T14:00:50.587Z,26.92
2022-11-10T14:03:55.644Z,27.50
2022-11-10T14:06:45.537Z,25.42
2022-11-10T14:09:35.145Z,43.97
2022-11-10T14:12:25.552Z,32.53
2022-11-10T14:15:16.918Z,25.85
2022-11-10T14:18:05.056Z,37.58
2022-11-10T14:20:57.468Z,26.70
2022-11-10T14:23:47.542Z,21.42
2022-11-10T14:26:38.050Z,22.98
2022-11-10T14:29:32.717Z,27.67
2022-11-10T14:32:22.291Z,18.10
2022-11-10T14:38:01.401Z,25.60
2022-11-10T14:40:48.937Z,25.30
2022-11-10T14:43:37.455Z,25.13
2022-11-10T14:46:25.601Z,25.48
2022-11-10T14:49:13.014Z,23.35
2022-11-10T14:52:01.755Z,22.45
2022-11-10T14:54:50.733Z,25.05
2022-11-10T14:57:37.955Z,25.43
2022-11-10T15:00:26.661Z,29.23
2022-11-10T15:03:16.917Z,23.15
2022-11-10T15:06:04.938Z,29.20
2022-11-10T15:08:52.269Z,22.83
2022-11-10T15:11:41.908Z,23.23
2022-11-10T15:14:39.710Z,29.85
2022-11-10T15:17:41.809Z,26.60
2022-11-10T15:20:37.792Z,25.80
2022-11-10T15:23:33.666Z,24.92
2022-11-10T15:26:23.099Z,29.00
2022-11-10T15:32:15.950Z,32.78
2022-11-10T15:35:27.040Z,31.17
2022-11-10T15:38:33.373Z,29.75
2022-11-10T15:41:27.715Z,29.70
2022-11-10T15:44:21.735Z,33.92
2022-11-10T15:47:13.905Z,30.63
2022-11-10T15:50:02.915Z,27.25
2022-11-10T15:52:49.774Z,27.75
2022-11-10T15:55:37.135Z,28.10
2022-11-10T15:58:25.292Z,28.73
2022-11-10T16:01:15.109Z,28.40
2022-11-10T16:04:02.391Z,27.27
2022-11-10T16:06:49.837Z,26.13
2022-11-10T16:09:37.043Z,24.88
2022-11-10T16:12:24.864Z,23.27
2022-11-10T16:15:21.977Z,25.55
2022-11-10T16:18:16.430Z,24.77
2022-11-10T16:21:03.765Z,25.02
2022-11-10T16:23:51.400Z,25.00
2022-11-10T16:26:38.703Z,23.88
2022-11-10T16:29:25.607Z,24.27
2022-11-10T16:32:13.123Z,26.90
2022-11-10T16:35:01.520Z,20.73
2022-11-10T16:37:49.303Z,28.13
2022-11-10T16:40:36.463Z,18.85
2022-11-10T16:43:24.006Z,20.70
2022-11-10T16:46:19.832Z,18.90
2022-11-10T16:49:19.001Z,16.83
2022-11-10T16:54:59.261Z,18.92
2022-11-10T16:57:46.647Z,18.05
2022-11-10T17:00:34.280Z,16.08
2022-11-10T17:03:29.312Z,19.63
2022-11-10T17:06:17.751Z,17.25
2022-11-10T17:09:14.518Z,16.60
2022-11-10T17:12:01.682Z,15.38
2022-11-10T17:14:48.732Z,15.63
2022-11-10T17:17:37.698Z,17.83
2022-11-10T17:20:29.869Z,13.75
2022-11-10T17:23:21.416Z,18.60
2022-11-10T17:26:13.458Z,18.65
2022-11-10T17:29:00.845Z,14.43
2022-11-10T17:31:50.477Z,16.23
2022-11-10T17:34:37.806Z,19.75
2022-11-10T17:37:25.149Z,22.20
2022-11-10T17:40:22.277Z,15.93
2022-11-10T17:43:13.200Z,17.48
2022-11-10T17:46:00.594Z,17.92
2022-11-10T17:48:48.221Z,18.13
2022-11-10T17:51:36.222Z,20.10
2022-11-10T17:54:23.666Z,18.25
2022-11-10T17:57:11.925Z,17.52
2022-11-10T18:00:00.757Z,17.33
2022-11-10T18:02:54.156Z,17.88
2022-11-10T18:05:42.500Z,22.13
2022-11-10T18:08:29.585Z,17.65
2022-11-10T18:11:19.170Z,18.35
2022-11-10T18:16:54.785Z,14.45
2022-11-10T18:19:42.236Z,17.33
2022-11-10T18:22:29.560Z,13.93
2022-11-10T18:25:17.024Z,13.98
2022-11-10T18:28:04.111Z,15.60
2022-11-10T18:30:51.410Z,14.60
2022-11-10T18:33:40.192Z,16.48
2022-11-10T18:36:27.668Z,17.90
2022-11-10T18:39:14.822Z,20.67
2022-11-10T18:42:02.064Z,18.17
2022-11-10T18:44:51.538Z,12.77
2022-11-10T18:47:39.109Z,18.73
2022-11-10T18:50:27.682Z,12.90
2022-11-10T18:53:15.046Z,10.90
2022-11-10T18:56:02.461Z,15.57
2022-11-10T18:58:56.409Z,11.15
2022-11-10T19:01:44.395Z,14.82
2022-11-10T19:04:31.739Z,12.05
2022-11-10T19:07:20.741Z,91.78
2022-11-10T19:10:08.482Z,12.85
2022-11-10T19:12:55.392Z,12.68
2022-11-10T19:15:43.081Z,11.20
2022-11-10T19:18:30.762Z,9.82
2022-11-10T19:21:20.109Z,11.45
2022-11-10T19:24:09.648Z,9.52
2022-11-10T19:29:43.979Z,7.45
2022-11-10T19:32:31.565Z,8.63
2022-11-10T19:35:19.240Z,7.95
2022-11-10T19:38:06.486Z,10.18
2022-11-10T19:40:55.270Z,7.22
2022-11-10T19:43:47.307Z,8.80
2022-11-10T19:46:37.106Z,8.15
2022-11-10T19:52:11.659Z,10.95
2022-11-10T19:54:58.749Z,9.90
2022-11-10T19:57:47.671Z,9.43
2022-11-10T20:00:35.071Z,10.57
2022-11-10T20:03:22.691Z,9.98
2022-11-10T20:06:12.039Z,9.77
2022-11-10T20:08:59.208Z,12.50
2022-11-10T20:11:47.096Z,11.57
2022-11-10T20:14:36.023Z,8.40
2022-11-10T20:17:23.096Z,10.23
2022-11-10T20:20:11.168Z,7.28
2022-11-10T20:23:03.024Z,13.25
2022-11-10T20:25:50.010Z,8.75
2022-11-10T20:28:39.492Z,10.05
2022-11-10T20:31:28.221Z,6.82
2022-11-10T20:34:15.655Z,11.25
2022-11-10T20:37:02.904Z,15.77
2022-11-10T20:39:49.983Z,10.75
2022-11-10T20:42:42.405Z,11.90
2022-11-10T20:45:29.731Z,9.63
2022-11-10T20:48:18.210Z,13.20
2022-11-10T20:51:11.490Z,11.00
2022-11-10T20:54:02.824Z,9.35
2022-11-10T20:56:50.064Z,10.63
2022-11-10T20:59:37.876Z,10.40
2022-11-10T21:02:26.904Z,8.32
2022-11-10T21:05:15.632Z,8.80
2022-11-10T21:08:03.058Z,12.55
2022-11-10T21:10:55.258Z,11.35
2022-11-10T21:13:44.859Z,10.43
2022-11-10T21:16:32.091Z,6.65
2022-11-10T21:19:19.298Z,11.05
2022-11-10T21:22:08.272Z,10.00
2022-11-10T21:24:55.564Z,9.07
2022-11-10T21:27:42.814Z,6.93
2022-11-10T21:30:30.127Z,13.13
2022-11-10T21:33:17.459Z,14.63
2022-11-10T21:36:07.822Z,8.88
2022-11-10T21:38:56.556Z,8.23
2022-11-10T21:41:43.691Z,11.23
2022-11-10T21:44:30.942Z,12.48
2022-11-10T21:47:18.566Z,8.45
2022-11-10T21:50:06.063Z,9.02
2022-11-10T21:52:53.356Z,8.88
2022-11-10T21:55:42.109Z,7.55
2022-11-10T21:58:29.579Z,8.35
2022-11-10T22:01:19.200Z,13.20
2022-11-10T22:04:06.656Z,8.88
2022-11-10T22:07:11.625Z,8.30
2022-11-10T22:10:16.506Z,14.18
2022-11-10T22:13:23.350Z,14.20
2022-11-10T22:16:39.022Z,11.18
2022-11-10T22:19:26.586Z,10.80
2022-11-10T22:22:14.481Z,9.90
2022-11-10T22:25:02.009Z,14.98
2022-11-10T22:27:57.091Z,10.35
2022-11-10T22:30:46.056Z,9.70
2022-11-10T22:33:35.320Z,10.77
2022-11-10T22:39:10.647Z,9.57
2022-11-10T22:42:15.890Z,12.25
2022-11-10T22:45:03.717Z,8.82
2022-11-10T22:48:15.343Z,10.00
2022-11-10T22:51:03.146Z,8.32
2022-11-10T22:53:50.754Z,9.45
2022-11-10T22:56:38.962Z,10.68
2022-11-10T22:59:26.652Z,7.97
2022-11-10T23:02:14.039Z,9.23
2022-11-10T23:05:03.013Z,9.15
2022-11-10T23:07:50.850Z,7.97
2022-11-10T23:10:38.790Z,9.57
2022-11-10T23:13:26.186Z,7.80
2022-11-10T23:16:14.157Z,12.30
2022-11-10T23:19:04.361Z,14.68
2022-11-10T23:21:55.473Z,11.18
2022-11-10T23:24:42.794Z,8.23
2022-11-10T23:27:30.128Z,7.95
2022-11-10T23:30:19.608Z,9.30
2022-11-10T23:33:08.688Z,7.75
2022-11-10T23:35:59.527Z,7.00
2022-11-10T23:38:50.483Z,6.47
2022-11-10T23:41:40.121Z,10.88
2022-11-10T23:47:18.809Z,13.25
2022-11-10T23:50:08.582Z,7.90
2022-11-10T23:52:58.333Z,10.52
2022-11-10T23:58:36.810Z,6.53
